createdAt,value
2019-05-23T00:00:47.110Z,72.92
2019-05-23T00:03:42.318Z,73.00
2019-05-23T00:06:39.368Z,73.32
2019-05-23T00:09:29.252Z,73.47
2019-05-23T00:12:04.432Z,74.36
2019-05-23T00:14:55.884Z,74.01
2019-05-23T00:17:27.445Z,74.13
2019-05-23T00:19:59.308Z,73.80
2019-05-23T00:22:34.199Z,73.73
2019-05-23T00:25:05.858Z,73.66
2019-05-23T00:27:42.121Z,73.69
2019-05-23T00:30:14.939Z,74.18
2019-05-23T00:32:49.281Z,74.30
2019-05-23T00:35:20.849Z,75.01
2019-05-23T00:37:53.039Z,74.58
2019-05-23T00:40:39.230Z,74.87
2019-05-23T00:43:10.517Z,75.18
2019-05-23T00:45:42.861Z,74.87
2019-05-23T00:48:24.619Z,74.83
2019-05-23T00:50:55.705Z,74.56
2019-05-23T00:53:28.243Z,74.73
2019-05-23T00:56:04.458Z,74.34
2019-05-23T00:58:39.493Z,74.18
2019-05-23T01:01:16.050Z,74.18
2019-05-23T01:03:47.033Z,74.06
2019-05-23T01:06:17.926Z,74.16
2019-05-23T01:08:54.679Z,74.65
2019-05-23T01:11:25.709Z,74.57
2019-05-23T01:13:58.011Z,74.67
2019-05-23T01:16:31.483Z,74.55
2019-05-23T01:19:04.582Z,74.95
2019-05-23T01:21:51.075Z,74.81
2019-05-23T01:24:26.491Z,74.92
2019-05-23T01:27:06.040Z,75.19
2019-05-23T01:29:38.763Z,75.16
2019-05-23T01:32:25.450Z,74.78
2019-05-23T01:34:57.184Z,75.15
2019-05-23T01:37:28.918Z,75.37
2019-05-23T01:39:59.882Z,75.52
2019-05-23T01:42:30.586Z,74.98
2019-05-23T01:45:03.454Z,75.20
2019-05-23T01:47:37.583Z,75.65
2019-05-23T01:50:22.608Z,75.14
2019-05-23T01:52:54.211Z,75.12
2019-05-23T01:55:25.180Z,74.96
2019-05-23T01:57:55.842Z,75.09
2019-05-23T02:00:35.401Z,75.17
2019-05-23T02:03:06.778Z,74.95
2019-05-23T02:05:38.200Z,74.54
2019-05-23T02:08:14.490Z,74.52
2019-05-23T02:10:48.770Z,75.45
2019-05-23T02:13:19.737Z,75.26
2019-05-23T02:15:52.536Z,75.38
2019-05-23T02:18:23.413Z,74.43
2019-05-23T02:20:54.114Z,74.50
2019-05-23T02:23:30.890Z,74.65
2019-05-23T02:26:01.604Z,74.59
2019-05-23T02:28:35.812Z,74.68
2019-05-23T02:31:18.023Z,74.17
2019-05-23T02:33:48.762Z,73.53
2019-05-23T02:36:26.830Z,73.93
2019-05-23T02:39:20.997Z,74.07
2019-05-23T02:41:58.429Z,74.39
2019-05-23T02:44:32.630Z,73.93
2019-05-23T02:47:05.043Z,74.73
2019-05-23T02:49:37.187Z,74.59
2019-05-23T02:52:34.635Z,74.35
2019-05-23T02:55:10.502Z,74.77
2019-05-23T02:57:41.783Z,74.82
2019-05-23T03:00:58.844Z,74.46
2019-05-23T03:03:32.118Z,74.29
2019-05-23T03:06:04.592Z,73.93
2019-05-23T03:08:37.046Z,74.72
2019-05-23T03:11:36.646Z,74.79
2019-05-23T03:14:09.453Z,74.67
2019-05-23T03:16:42.999Z,74.93
2019-05-23T03:19:38.750Z,75.19
2019-05-23T03:22:37.185Z,75.01
2019-05-23T03:25:33.556Z,75.11
2019-05-23T03:28:10.005Z,75.10
2019-05-23T03:30:49.067Z,75.29
2019-05-23T03:33:20.216Z,74.78
2019-05-23T03:35:59.676Z,75.15
2019-05-23T03:38:32.113Z,74.69
2019-05-23T03:41:03.577Z,74.66
2019-05-23T03:43:39.324Z,75.71
2019-05-23T03:46:14.651Z,75.66
2019-05-23T03:48:47.242Z,75.81
2019-05-23T03:51:19.646Z,75.70
2019-05-23T03:53:57.284Z,76.12
2019-05-23T03:56:29.897Z,75.70
2019-05-23T03:59:00.542Z,75.51
2019-05-23T04:01:46.969Z,75.99
2019-05-23T04:04:06.305Z,75.54
2019-05-23T04:06:37.285Z,74.91
2019-05-23T04:09:08.133Z,75.59
2019-05-23T04:11:41.336Z,76.01
2019-05-23T04:14:15.786Z,75.31
2019-05-23T04:16:47.180Z,75.00
2019-05-23T04:19:18.313Z,75.42
2019-05-23T04:21:49.576Z,75.49
2019-05-23T04:24:20.367Z,75.46
2019-05-23T04:26:51.094Z,75.43
2019-05-23T04:29:22.136Z,74.66
2019-05-23T04:32:07.356Z,75.67
2019-05-23T04:34:25.840Z,75.25
2019-05-23T04:36:57.198Z,74.84
2019-05-23T04:39:28.071Z,74.66
2019-05-23T04:42:02.010Z,74.55
2019-05-23T04:44:33.829Z,75.08
2019-05-23T04:47:05.706Z,74.28
2019-05-23T04:49:37.763Z,74.36
2019-05-23T04:52:11.101Z,74.74
2019-05-23T04:54:42.911Z,74.89
2019-05-23T04:57:14.437Z,75.21
2019-05-23T04:59:45.194Z,75.20
2019-05-23T05:02:25.323Z,75.24
2019-05-23T05:04:50.662Z,74.62
2019-05-23T05:07:21.849Z,74.57
2019-05-23T05:10:02.738Z,75.00
2019-05-23T05:12:33.841Z,75.28
2019-05-23T05:15:14.817Z,75.49
2019-05-23T05:17:55.843Z,75.94
2019-05-23T05:20:32.912Z,75.32
2019-05-23T05:23:03.841Z,75.48
2019-05-23T05:25:44.592Z,75.62
2019-05-23T05:28:27.826Z,75.44
2019-05-23T05:30:58.605Z,75.95
2019-05-23T05:33:29.784Z,76.08
2019-05-23T05:36:00.621Z,75.70
2019-05-23T05:38:33.336Z,75.71
2019-05-23T05:41:06.069Z,75.49
2019-05-23T05:43:42.713Z,75.65
2019-05-23T05:46:18.910Z,74.63
2019-05-23T05:48:50.779Z,74.93
2019-05-23T05:51:22.352Z,74.87
2019-05-23T05:53:53.376Z,74.23
2019-05-23T05:56:23.931Z,74.12
2019-05-23T05:58:59.727Z,73.40
2019-05-23T06:01:34.384Z,73.13
2019-05-23T06:04:03.929Z,72.88
2019-05-23T06:06:49.838Z,72.76
2019-05-23T06:09:27.563Z,72.33
2019-05-23T06:11:58.278Z,72.56
2019-05-23T06:14:29.238Z,72.44
2019-05-23T06:17:00.912Z,71.75
2019-05-23T06:19:31.582Z,72.05
2019-05-23T06:22:02.474Z,72.73
2019-05-23T06:24:44.916Z,72.76
2019-05-23T06:27:07.471Z,72.81
2019-05-23T06:29:38.250Z,73.17
2019-05-23T06:32:10.555Z,73.13
2019-05-23T06:34:41.459Z,73.65
2019-05-23T06:37:12.078Z,72.88
2019-05-23T06:39:42.917Z,72.60
2019-05-23T06:42:13.553Z,72.30
2019-05-23T06:44:44.231Z,71.82
2019-05-23T06:47:15.862Z,71.00
2019-05-23T06:49:49.640Z,70.69
2019-05-23T06:52:35.598Z,70.38
2019-05-23T06:55:10.801Z,70.10
2019-05-23T06:57:41.391Z,70.52
2019-05-23T07:00:16.069Z,70.06
2019-05-23T07:02:47.305Z,69.86
2019-05-23T07:05:20.113Z,70.09
2019-05-23T07:07:50.984Z,70.66
2019-05-23T07:10:23.054Z,69.94
2019-05-23T07:12:53.789Z,70.20
2019-05-23T07:15:30.638Z,69.48
2019-05-23T07:18:14.520Z,69.47
2019-05-23T07:20:45.647Z,69.70
2019-05-23T07:23:24.693Z,69.13
2019-05-23T07:25:55.434Z,68.84
2019-05-23T07:28:26.153Z,68.59
2019-05-23T07:30:56.885Z,68.29
2019-05-23T07:33:29.521Z,67.89
2019-05-23T07:36:00.134Z,68.24
2019-05-23T07:38:30.732Z,67.94
2019-05-23T07:41:03.278Z,67.90
2019-05-23T07:43:34.902Z,67.16
2019-05-23T07:46:05.761Z,67.31
2019-05-23T07:48:36.540Z,66.79
2019-05-23T07:51:07.472Z,66.94
2019-05-23T07:54:05.707Z,66.12
2019-05-23T07:56:40.138Z,65.95
2019-05-23T07:59:10.932Z,62.35
2019-05-23T08:01:45.640Z,62.77
2019-05-23T08:04:21.741Z,63.54
2019-05-23T08:06:52.810Z,63.15
2019-05-23T08:09:24.813Z,61.92
2019-05-23T08:11:56.456Z,61.23
2019-05-23T08:14:31.336Z,60.30
2019-05-23T08:17:09.130Z,60.41
2019-05-23T08:19:48.962Z,59.96
2019-05-23T08:22:12.413Z,60.03
2019-05-23T08:24:43.282Z,59.36
2019-05-23T08:27:14.129Z,56.83
2019-05-23T08:29:48.684Z,53.79
2019-05-23T08:32:53.753Z,52.92
2019-05-23T08:35:24.524Z,51.85
2019-05-23T08:37:55.633Z,51.48
2019-05-23T08:40:26.689Z,51.08
2019-05-23T08:42:57.261Z,51.80
2019-05-23T08:45:27.861Z,52.59
2019-05-23T08:47:58.692Z,51.33
2019-05-23T08:50:29.299Z,50.47
2019-05-23T08:52:59.943Z,49.31
2019-05-23T08:55:31.545Z,50.81
2019-05-23T09:01:27.086Z,49.80
2019-05-23T09:03:57.825Z,50.36
2019-05-23T09:06:28.611Z,49.12
2019-05-23T09:09:29.202Z,49.83
2019-05-23T09:11:49.475Z,48.06
2019-05-23T09:14:20.532Z,48.49
2019-05-23T09:16:51.853Z,49.40
2019-05-23T09:19:27.302Z,48.28
2019-05-23T09:21:59.057Z,48.96
2019-05-23T09:24:29.666Z,45.55
2019-05-23T09:27:05.863Z,45.27
2019-05-23T09:29:40.234Z,45.41
2019-05-23T09:32:11.499Z,45.11
2019-05-23T09:34:42.087Z,45.29
2019-05-23T09:37:13.433Z,45.04
2019-05-23T09:39:44.139Z,44.78
2019-05-23T09:42:14.721Z,44.63
2019-05-23T09:44:45.329Z,43.60
2019-05-23T09:47:16.020Z,43.77
2019-05-23T09:49:53.746Z,43.84
2019-05-23T09:52:19.712Z,43.69
2019-05-23T09:54:50.416Z,43.54
2019-05-23T09:57:28.599Z,44.44
2019-05-23T10:00:07.000Z,42.88
2019-05-23T10:02:37.793Z,43.25
2019-05-23T10:05:12.513Z,43.90
2019-05-23T10:07:44.239Z,44.82
2019-05-23T10:10:17.649Z,43.94
2019-05-23T10:12:48.380Z,43.28
2019-05-23T10:15:33.014Z,43.66
2019-05-23T10:18:19.518Z,44.92
2019-05-23T10:21:09.085Z,43.68
2019-05-23T10:23:39.612Z,43.75
2019-05-23T10:26:18.211Z,43.55
2019-05-23T10:28:55.515Z,42.63
2019-05-23T10:31:36.020Z,43.01
2019-05-23T10:34:08.719Z,43.34
2019-05-23T10:36:40.425Z,42.67
2019-05-23T10:39:11.896Z,42.52
2019-05-23T10:41:42.741Z,42.79
2019-05-23T10:44:21.103Z,42.59
2019-05-23T10:46:54.047Z,43.19
2019-05-23T10:49:26.750Z,42.08
2019-05-23T10:52:02.481Z,41.76
2019-05-23T10:54:33.273Z,42.35
2019-05-23T10:57:05.900Z,42.26
2019-05-23T10:59:36.561Z,40.69
2019-05-23T11:02:07.729Z,41.47
2019-05-23T11:04:38.325Z,41.02
2019-05-23T11:07:10.587Z,41.45
2019-05-23T11:09:47.453Z,41.75
2019-05-23T11:12:18.144Z,42.03
2019-05-23T11:14:54.434Z,42.07
2019-05-23T11:17:35.395Z,42.71
2019-05-23T11:20:06.622Z,41.97
2019-05-23T11:22:39.435Z,41.94
2019-05-23T11:25:17.718Z,41.61
2019-05-23T11:27:49.386Z,41.40
2019-05-23T11:30:25.308Z,40.57
2019-05-23T11:32:56.035Z,41.62
2019-05-23T11:35:27.744Z,41.69
2019-05-23T11:37:58.424Z,42.79
2019-05-23T11:40:33.874Z,43.36
2019-05-23T11:43:22.960Z,40.97
2019-05-23T11:45:58.248Z,42.64
2019-05-23T11:48:29.086Z,42.02
2019-05-23T11:51:01.897Z,41.65
2019-05-23T11:53:33.106Z,41.94
2019-05-23T11:56:03.859Z,42.25
2019-05-23T11:58:37.882Z,41.67
2019-05-23T12:01:26.817Z,41.33
2019-05-23T12:04:02.160Z,41.19
2019-05-23T12:06:53.567Z,41.15
2019-05-23T12:09:13.234Z,41.04
2019-05-23T12:11:50.014Z,41.85
2019-05-23T12:14:26.931Z,42.45
2019-05-23T12:16:57.703Z,42.00
2019-05-23T12:19:34.608Z,40.25
2019-05-23T12:22:05.376Z,41.23
2019-05-23T12:24:38.147Z,39.96
2019-05-23T12:27:10.068Z,41.14
2019-05-23T12:29:41.720Z,41.47
2019-05-23T12:32:15.038Z,41.91
2019-05-23T12:35:08.674Z,43.50
2019-05-23T12:37:21.745Z,44.24
2019-05-23T12:39:52.664Z,42.09
2019-05-23T12:42:23.278Z,42.09
2019-05-23T12:44:53.870Z,41.25
2019-05-23T12:47:26.267Z,42.20
2019-05-23T12:49:58.493Z,42.33
2019-05-23T12:52:33.380Z,42.39
2019-05-23T12:55:06.427Z,41.46
2019-05-23T12:57:37.311Z,40.24
2019-05-23T13:00:09.849Z,39.90
2019-05-23T13:02:40.861Z,39.84
2019-05-23T13:05:12.979Z,39.46
2019-05-23T13:07:43.588Z,39.18
2019-05-23T13:10:14.567Z,39.24
2019-05-23T13:12:45.265Z,38.24
2019-05-23T13:15:16.391Z,36.08
2019-05-23T13:17:47.050Z,34.47
2019-05-23T13:20:18.024Z,36.44
2019-05-23T13:22:48.801Z,35.51
2019-05-23T13:25:19.509Z,35.49
2019-05-23T13:27:50.290Z,33.51
2019-05-23T13:30:20.978Z,33.86
2019-05-23T13:32:51.574Z,34.83
2019-05-23T13:35:22.865Z,35.41
2019-05-23T13:37:54.504Z,35.59
2019-05-23T13:40:51.577Z,35.26
2019-05-23T13:43:27.407Z,33.67
2019-05-23T13:45:58.080Z,32.82
2019-05-23T13:48:29.034Z,33.95
2019-05-23T13:50:59.865Z,33.53
2019-05-23T13:53:34.835Z,34.20
2019-05-23T13:56:06.201Z,34.83
2019-05-23T13:58:37.141Z,35.06
2019-05-23T14:01:09.995Z,33.61
2019-05-23T14:03:40.882Z,33.26
2019-05-23T14:06:11.447Z,33.19
2019-05-23T14:08:42.109Z,33.81
2019-05-23T14:11:13.362Z,35.05
2019-05-23T14:13:44.361Z,34.67
2019-05-23T14:16:15.083Z,35.10
2019-05-23T14:18:46.043Z,33.57
2019-05-23T14:21:16.757Z,33.06
2019-05-23T14:23:47.360Z,33.54
2019-05-23T14:26:18.383Z,33.71
2019-05-23T14:28:48.962Z,32.94
2019-05-23T14:31:19.676Z,33.21
2019-05-23T14:33:58.139Z,33.66
2019-05-23T14:36:50.769Z,33.61
2019-05-23T14:39:26.548Z,34.97
2019-05-23T14:42:01.552Z,35.36
2019-05-23T14:44:32.372Z,33.14
2019-05-23T14:47:19.541Z,33.31
2019-05-23T14:50:04.613Z,33.50
2019-05-23T14:52:47.292Z,33.89
2019-05-23T14:55:23.932Z,34.08
2019-05-23T14:57:55.192Z,34.35
2019-05-23T15:00:37.554Z,33.87
2019-05-23T15:03:22.567Z,33.94
2019-05-23T15:05:53.299Z,34.43
2019-05-23T15:08:24.944Z,34.40
2019-05-23T15:10:55.543Z,34.11
2019-05-23T15:16:04.518Z,33.88
2019-05-23T15:18:35.112Z,34.63
2019-05-23T15:21:05.883Z,34.27
2019-05-23T15:23:37.910Z,34.01
2019-05-23T15:26:27.656Z,32.75
2019-05-23T15:28:58.244Z,32.26
2019-05-23T15:31:32.504Z,33.14
2019-05-23T15:34:10.070Z,34.34
2019-05-23T15:36:41.956Z,32.99
2019-05-23T15:39:12.863Z,33.96
2019-05-23T15:41:44.605Z,34.56
2019-05-23T15:44:25.667Z,34.04
2019-05-23T15:46:53.515Z,33.45
2019-05-23T15:49:24.188Z,34.45
2019-05-23T15:52:13.128Z,34.73
2019-05-23T15:54:53.326Z,36.18
2019-05-23T15:57:28.274Z,34.52
2019-05-23T16:00:05.368Z,34.25
2019-05-23T16:02:41.209Z,34.93
2019-05-23T16:05:14.144Z,34.03
2019-05-23T16:07:46.227Z,34.45
2019-05-23T16:10:20.566Z,34.90
2019-05-23T16:12:52.133Z,33.53
2019-05-23T16:15:24.554Z,34.61
2019-05-23T16:17:55.953Z,34.78
2019-05-23T16:20:29.602Z,34.18
2019-05-23T16:23:00.694Z,34.37
2019-05-23T16:25:31.639Z,35.24
2019-05-23T16:28:03.540Z,33.87
2019-05-23T16:30:35.051Z,33.55
2019-05-23T16:33:06.830Z,33.05
2019-05-23T16:35:38.001Z,33.60
2019-05-23T16:38:09.993Z,34.81
2019-05-23T16:40:44.427Z,34.57
2019-05-23T16:43:16.069Z,33.33
2019-05-23T16:45:54.377Z,32.60
2019-05-23T16:48:26.669Z,33.33
2019-05-23T16:51:04.122Z,33.66
2019-05-23T16:53:40.217Z,33.17
2019-05-23T16:56:21.667Z,32.52
2019-05-23T16:59:03.189Z,31.20
2019-05-23T17:01:57.782Z,29.70
2019-05-23T17:04:33.276Z,29.25
2019-05-23T17:07:22.096Z,29.25
2019-05-23T17:10:08.391Z,28.72
2019-05-23T17:12:33.785Z,29.36
2019-05-23T17:15:24.626Z,28.83
2019-05-23T17:18:09.513Z,28.57
2019-05-23T17:20:43.914Z,28.89
2019-05-23T17:23:26.202Z,29.02
2019-05-23T17:26:10.547Z,29.51
2019-05-23T17:28:48.883Z,28.32
2019-05-23T17:31:21.455Z,28.30
2019-05-23T17:33:52.538Z,28.78
2019-05-23T17:36:24.397Z,28.51
2019-05-23T17:38:59.888Z,27.82
2019-05-23T17:41:30.836Z,28.10
2019-05-23T17:44:01.497Z,28.38
2019-05-23T17:46:32.636Z,28.66
2019-05-23T17:49:03.273Z,28.77
2019-05-23T17:51:33.958Z,28.88
2019-05-23T17:54:04.739Z,28.10
2019-05-23T17:56:36.527Z,28.29
2019-05-23T17:59:07.276Z,28.00
2019-05-23T18:01:44.361Z,27.81
2019-05-23T18:04:16.746Z,28.40
2019-05-23T18:06:47.354Z,27.79
2019-05-23T18:09:20.657Z,27.46
2019-05-23T18:11:55.475Z,27.45
2019-05-23T18:14:25.926Z,27.63
2019-05-23T18:16:56.796Z,28.08
2019-05-23T18:19:28.004Z,26.99
2019-05-23T18:22:03.049Z,27.38
2019-05-23T18:24:33.983Z,27.37
2019-05-23T18:27:06.302Z,28.16
2019-05-23T18:29:37.127Z,27.29
2019-05-23T18:32:09.689Z,27.15
2019-05-23T18:34:42.386Z,28.37
2019-05-23T18:37:14.110Z,27.22
2019-05-23T18:39:45.185Z,27.31
2019-05-23T18:42:16.674Z,27.38
2019-05-23T18:44:49.372Z,27.49
2019-05-23T18:47:25.586Z,27.44
2019-05-23T18:49:56.687Z,28.07
2019-05-23T18:52:27.342Z,27.46
2019-05-23T18:54:58.095Z,28.22
2019-05-23T18:57:28.716Z,27.73
2019-05-23T18:59:59.486Z,27.80
2019-05-23T19:02:30.849Z,28.14
2019-05-23T19:05:01.993Z,28.66
2019-05-23T19:07:41.072Z,29.53
2019-05-23T19:10:17.683Z,29.62
2019-05-23T19:12:48.463Z,30.13
2019-05-23T19:15:26.409Z,30.09
2019-05-23T19:17:57.685Z,30.67
2019-05-23T19:20:29.250Z,31.13
2019-05-23T19:23:05.335Z,31.39
2019-05-23T19:25:36.223Z,31.09
2019-05-23T19:28:08.552Z,31.07
2019-05-23T19:30:42.257Z,31.29
2019-05-23T19:33:13.183Z,31.22
2019-05-23T19:35:47.411Z,31.61
2019-05-23T19:38:17.184Z,31.35
2019-05-23T19:40:48.447Z,32.07
2019-05-23T19:43:19.444Z,32.10
2019-05-23T19:45:56.780Z,31.52
2019-05-23T19:48:27.818Z,31.56
2019-05-23T19:50:58.805Z,32.33
2019-05-23T19:53:29.685Z,35.25
2019-05-23T19:56:01.529Z,37.13
2019-05-23T19:58:34.841Z,34.82
2019-05-23T20:01:06.879Z,36.51
2019-05-23T20:03:38.805Z,34.37
2019-05-23T20:06:10.922Z,34.32
2019-05-23T20:08:47.938Z,36.16
2019-05-23T20:11:19.952Z,35.00
2019-05-23T20:13:51.647Z,36.15
2019-05-23T20:16:22.277Z,36.78
2019-05-23T20:18:53.880Z,36.78
2019-05-23T20:21:25.585Z,37.23
2019-05-23T20:24:01.261Z,37.07
2019-05-23T20:26:31.900Z,37.76
2019-05-23T20:29:03.690Z,38.53
2019-05-23T20:31:34.256Z,41.46
2019-05-23T20:34:07.412Z,41.34
2019-05-23T20:36:38.306Z,41.32
2019-05-23T20:39:09.042Z,42.55
2019-05-23T20:41:39.942Z,41.25
2019-05-23T20:44:13.981Z,40.51
2019-05-23T20:46:44.570Z,40.97
2019-05-23T20:49:15.527Z,41.85
2019-05-23T20:51:46.183Z,40.47
2019-05-23T20:54:16.951Z,41.64
2019-05-23T20:56:47.766Z,43.18
2019-05-23T20:59:18.488Z,43.54
2019-05-23T21:01:49.500Z,44.29
2019-05-23T21:04:21.104Z,44.33
2019-05-23T21:06:52.402Z,45.55
2019-05-23T21:09:23.207Z,45.21
2019-05-23T21:11:55.879Z,45.81
2019-05-23T21:14:26.517Z,46.42
2019-05-23T21:16:57.226Z,46.09
2019-05-23T21:19:27.933Z,47.03
2019-05-23T21:21:58.592Z,47.47
2019-05-23T21:24:30.917Z,47.27
2019-05-23T21:27:05.790Z,47.96
2019-05-23T21:29:36.424Z,47.62
2019-05-23T21:32:07.671Z,47.81
2019-05-23T21:34:38.686Z,48.48
2019-05-23T21:37:09.303Z,48.58
2019-05-23T21:39:40.194Z,47.34
2019-05-23T21:42:11.182Z,48.91
2019-05-23T21:48:05.983Z,48.47
2019-05-23T21:53:40.556Z,49.61
2019-05-23T21:56:13.406Z,50.26
2019-05-23T21:58:44.352Z,49.08
2019-05-23T22:01:19.289Z,49.87
2019-05-23T22:03:52.862Z,50.78
2019-05-23T22:06:37.867Z,50.46
2019-05-23T22:09:10.179Z,50.47
2019-05-23T22:11:40.888Z,51.10
2019-05-23T22:14:11.490Z,51.36
2019-05-23T22:16:42.236Z,51.03
2019-05-23T22:19:14.806Z,51.74
2019-05-23T22:21:54.599Z,52.04
2019-05-23T22:24:27.034Z,52.41
2019-05-23T22:26:57.974Z,52.37
2019-05-23T22:29:31.082Z,52.52
2019-05-23T22:32:10.334Z,53.03
2019-05-23T22:34:43.294Z,52.85
2019-05-23T22:37:15.604Z,52.83
2019-05-23T22:39:46.378Z,53.64
2019-05-23T22:42:21.699Z,53.17
2019-05-23T22:44:52.813Z,53.54
2019-05-23T22:47:24.633Z,53.82
2019-05-23T22:49:55.748Z,54.59
2019-05-23T22:52:26.561Z,53.87
2019-05-23T22:54:57.376Z,54.08
2019-05-23T22:57:28.178Z,54.62
2019-05-23T22:59:59.191Z,55.66
2019-05-23T23:02:30.484Z,55.72
2019-05-23T23:05:01.395Z,55.94
2019-05-23T23:07:33.239Z,55.92
2019-05-23T23:10:04.064Z,56.55
2019-05-23T23:12:34.955Z,57.23
2019-05-23T23:15:07.771Z,57.66
2019-05-23T23:17:38.509Z,57.58
2019-05-23T23:20:09.649Z,58.19
2019-05-23T23:22:40.827Z,58.35
2019-05-23T23:25:17.730Z,58.31
2019-05-23T23:27:50.503Z,58.63
2019-05-23T23:30:25.981Z,58.62
2019-05-23T23:32:57.923Z,58.60
2019-05-23T23:35:28.529Z,58.43
2019-05-23T23:38:00.153Z,59.06
2019-05-23T23:40:30.887Z,59.01
2019-05-23T23:43:01.452Z,58.97
2019-05-23T23:45:50.296Z,58.97
2019-05-23T23:48:40.948Z,59.36
2019-05-23T23:51:30.678Z,59.71
2019-05-23T23:54:19.170Z,59.30
2019-05-23T23:57:11.353Z,59.25
2019-05-23T23:59:41.198Z,58.78
